Time;durP1;ratioP1;P1;durP2;ratioP2;P2;SDS_P1;SDS_P2;PMS_P1;PMS_P2;Temp;Humidity;BMP_temperature;BMP_pressure;BME280_temperature;BME280_humidity;BME280_pressure;Samples;Min_cycle;Max_cycle;Signal;HPM_P1;HPM_P2
2021/05/26 00:00:57;;;;;;;1.33;1.00;;;;;;;9.30;77.99;100460.47;2071834;28;20029;-61
2021/05/26 00:01:58;;;;;;;2.15;1.33;;;;;;;9.29;77.66;100455.31;2071347;28;20110;-61
2021/05/26 00:02:58;;;;;;;1.80;1.02;;;;;;;9.29;77.69;100456.16;2071455;28;20076;-61
2021/05/26 00:03:58;;;;;;;2.77;1.10;;;;;;;9.28;77.86;100453.59;2071618;28;20037;-61
2021/05/26 00:04:59;;;;;;;3.67;1.10;;;;;;;9.28;77.65;100453.59;2069756;28;20022;-61
2021/05/26 00:05:59;;;;;;;4.60;1.27;;;;;;;9.26;77.98;100451.00;2063656;28;20033;-61
2021/05/26 00:06:59;;;;;;;2.23;1.33;;;;;;;9.26;77.99;100445.81;2066921;28;20382;-61
2021/05/26 00:07:59;;;;;;;2.97;1.00;;;;;;;9.29;77.57;100450.94;2068500;28;20042;-61
2021/05/26 00:09:00;;;;;;;2.80;1.10;;;;;;;9.27;77.67;100450.13;2063968;28;20026;-61
2021/05/26 00:10:00;;;;;;;2.87;1.00;;;;;;;9.28;77.66;100451.84;2063372;28;20387;-62
2021/05/26 00:11:06;;;;;;;4.90;1.30;;;;;;;9.26;78.16;100444.97;2066860;28;20430;-61
2021/05/26 00:12:07;;;;;;;2.80;1.00;;;;;;;9.25;78.28;100443.25;2068068;28;20026;-61
2021/05/26 00:13:07;;;;;;;2.15;1.10;;;;;;;9.23;78.52;100445.88;2063144;28;20030;-61
2021/05/26 00:14:08;;;;;;;3.47;1.17;;;;;;;9.26;78.77;100450.16;2062820;28;20054;-61
2021/05/26 00:15:09;;;;;;;3.15;1.23;;;;;;;9.25;78.78;100433.72;2065931;28;20041;-61
2021/05/26 00:16:09;;;;;;;3.67;1.42;;;;;;;9.22;79.07;100441.56;2064028;28;20637;-61
2021/05/26 00:17:10;;;;;;;2.77;1.00;;;;;;;9.25;79.38;100438.91;2067965;28;20029;-61
2021/05/26 00:18:10;;;;;;;3.43;1.10;;;;;;;9.24;78.85;100437.19;2068337;28;20033;-61
2021/05/26 00:19:11;;;;;;;2.87;1.07;;;;;;;9.26;78.68;100434.56;2070206;28;20121;-61
2021/05/26 00:20:12;;;;;;;4.00;1.13;;;;;;;9.28;78.63;100435.38;2071330;28;20029;-61
2021/05/26 00:21:12;;;;;;;4.90;1.27;;;;;;;9.32;78.67;100439.63;2070850;28;20442;-61
2021/05/26 00:22:12;;;;;;;5.50;1.60;;;;;;;9.34;78.72;100443.06;2067600;28;20397;-61
2021/05/26 00:23:14;;;;;;;3.10;0.93;;;;;;;9.34;78.87;100440.44;2068479;28;20026;-61
2021/05/26 00:24:14;;;;;;;;;;;;;;;9.34;79.01;100437.84;2072026;28;20037;-62
2021/05/26 00:25:14;;;;;;;3.53;1.00;;;;;;;9.35;79.18;100431.75;2071321;28;20278;-62
2021/05/26 00:26:15;;;;;;;5.13;0.87;;;;;;;9.32;79.41;100434.41;2066349;28;20022;-62
2021/05/26 00:27:15;;;;;;;3.07;0.90;;;;;;;9.30;79.51;100434.47;2068302;28;20026;-61
2021/05/26 00:28:16;;;;;;;3.63;1.23;;;;;;;9.30;79.71;100429.25;2070605;28;20165;-62
2021/05/26 00:29:16;;;;;;;3.63;1.10;;;;;;;9.31;79.46;100430.97;2069155;28;20781;-62
2021/05/26 00:30:17;;;;;;;3.80;1.33;;;;;;;9.33;79.67;100436.13;2069176;28;20029;-61
2021/05/26 00:31:22;;;;;;;5.25;1.30;;;;;;;9.34;80.29;100433.53;2069539;28;20502;-61
2021/05/26 00:32:22;;;;;;;3.13;1.30;;;;;;;9.32;79.69;100440.50;2071543;28;20029;-61
2021/05/26 00:33:23;;;;;;;2.90;1.20;;;;;;;9.31;79.68;100430.97;2071991;28;20017;-62
2021/05/26 00:34:23;;;;;;;2.20;1.00;;;;;;;9.32;79.65;100437.88;2068586;28;20038;-62
2021/05/26 00:35:24;;;;;;;3.27;1.07;;;;;;;9.32;79.96;100437.88;2066161;28;20068;-61
2021/05/26 00:36:24;;;;;;;2.55;1.13;;;;;;;9.37;80.00;100437.78;2073419;28;20032;-61
2021/05/26 00:37:25;;;;;;;3.40;1.30;;;;;;;9.38;80.27;100434.31;2070664;28;20095;-61
2021/05/26 00:38:25;;;;;;;3.83;1.50;;;;;;;9.38;80.06;100423.91;2066323;28;20049;-61
2021/05/26 00:39:25;;;;;;;2.30;1.30;;;;;;;9.36;79.70;100417.88;2062088;28;20026;-61
2021/05/26 00:40:26;;;;;;;3.73;1.43;;;;;;;9.35;80.02;100418.75;2070551;28;20076;-61
2021/05/26 00:41:28;;;;;;;3.20;1.27;;;;;;;9.35;79.86;100419.59;2065496;28;20502;-61
2021/05/26 00:42:30;;;;;;;5.60;1.30;;;;;;;9.33;80.15;100411.00;2067683;28;20022;-61
2021/05/26 00:43:30;;;;;;;3.42;1.20;;;;;;;9.37;79.84;100409.19;2069720;28;20030;-62
2021/05/26 00:44:30;;;;;;;2.43;1.20;;;;;;;9.37;79.25;100405.69;2068683;28;20031;-61
2021/05/26 00:45:32;;;;;;;3.67;1.20;;;;;;;9.38;79.36;100405.69;2072247;28;20028;-62
2021/05/26 00:46:44;;;;;;;3.90;1.25;;;;;;;9.45;78.27;100401.22;2069017;28;20646;-62
2021/05/26 00:47:47;;;;;;;3.20;1.20;;;;;;;9.38;79.10;100397.88;2072795;28;20048;-61
2021/05/26 00:48:48;;;;;;;6.38;2.20;;;;;;;9.37;79.24;100400.50;2072158;28;20119;-61
2021/05/26 00:49:48;;;;;;;3.72;1.40;;;;;;;9.33;79.59;100399.72;2072670;28;20038;-61
2021/05/26 00:50:48;;;;;;;6.30;1.40;;;;;;;9.30;80.36;100399.81;2072255;28;20034;-64
2021/05/26 00:51:49;;;;;;;2.87;1.20;;;;;;;9.25;81.28;100399.91;2072556;28;20038;-61
2021/05/26 00:52:50;;;;;;;3.03;1.70;;;;;;;9.29;79.76;100400.69;2072240;28;20025;-61
2021/05/26 00:53:50;;;;;;;3.70;1.33;;;;;;;9.28;79.03;100397.22;2064547;28;20033;-61
2021/05/26 00:54:50;;;;;;;3.97;1.67;;;;;;;9.29;78.72;100398.09;2069965;28;20463;-61
2021/05/26 00:55:50;;;;;;;8.70;1.40;;;;;;;9.28;78.66;100392.00;2068955;28;20026;-61
2021/05/26 00:56:51;;;;;;;5.37;1.40;;;;;;;9.27;78.60;100395.50;2065397;28;20105;-61
2021/05/26 00:57:51;;;;;;;6.37;1.70;;;;;;;9.28;78.71;100402.41;2067626;28;20033;-61
2021/05/26 00:58:53;;;;;;;4.60;1.30;;;;;;;9.36;77.73;100399.66;2068139;28;20818;-62
2021/05/26 00:59:53;;;;;;;3.22;1.30;;;;;;;9.40;77.62;100396.13;2064043;28;20038;-62
2021/05/26 01:00:55;;;;;;;5.77;1.40;;;;;;;9.37;77.80;100390.09;2066503;28;20022;-62
2021/05/26 01:01:56;;;;;;;5.82;1.30;;;;;;;9.41;78.16;100394.34;2063571;28;20097;-61
2021/05/26 01:02:56;;;;;;;3.33;1.30;;;;;;;9.39;77.56;100398.72;2060556;28;20081;-61
2021/05/26 01:03:57;;;;;;;4.22;1.40;;;;;;;9.38;77.91;100397.00;2063585;28;20406;-61
2021/05/26 01:04:57;;;;;;;4.53;1.40;;;;;;;9.42;77.17;100399.50;2062795;28;20030;-62
2021/05/26 01:05:58;;;;;;;3.23;1.40;;;;;;;9.42;77.64;100401.28;2064692;28;20622;-61
2021/05/26 01:06:59;;;;;;;4.37;1.27;;;;;;;9.43;78.22;100398.63;2072029;28;20038;-61
2021/05/26 01:08:00;;;;;;;4.63;1.40;;;;;;;9.44;78.81;100396.91;2072081;28;20100;-61
2021/05/26 01:09:00;;;;;;;2.90;1.13;;;;;;;9.44;78.96;100399.50;2070354;28;20030;-61
2021/05/26 01:10:01;;;;;;;4.10;1.53;;;;;;;9.43;79.29;100398.63;2062362;28;20535;-61
2021/05/26 01:11:05;;;;;;;;;;;;;;;9.41;79.83;100389.16;2055061;28;20059;-61
2021/05/26 01:12:06;;;;;;;3.35;1.40;;;;;;;9.42;79.84;100396.06;2064322;28;19925;-62
2021/05/26 01:13:08;;;;;;;5.05;1.52;;;;;;;9.42;80.01;100389.09;2070460;28;20029;-61
2021/05/26 01:14:08;;;;;;;3.00;1.45;;;;;;;9.41;79.96;100379.59;2069785;28;20018;-61
2021/05/26 01:15:11;;;;;;;4.53;1.60;;;;;;;9.38;79.71;100387.47;2072516;28;20034;-61
2021/05/26 01:16:12;;;;;;;4.70;1.40;;;;;;;9.35;79.29;100387.53;2071433;28;20105;-61
2021/05/26 01:17:12;;;;;;;3.40;1.73;;;;;;;9.37;80.88;100387.50;2068848;28;20030;-61
2021/05/26 01:18:31;;;;;;;3.77;1.30;;;;;;;9.34;80.84;100384.09;2065503;28;20046;-61
2021/05/26 01:19:31;;;;;;;4.85;1.48;;;;;;;9.33;80.50;100384.09;2071423;28;20277;-61
2021/05/26 01:20:32;;;;;;;3.53;1.58;;;;;;;9.34;80.26;100381.50;2071550;28;20591;-61
2021/05/26 01:21:32;;;;;;;4.83;1.30;;;;;;;9.35;80.67;100387.53;2071730;28;20029;-61
2021/05/26 01:22:32;;;;;;;3.57;1.40;;;;;;;9.30;80.25;100382.44;2067394;28;20109;-62
2021/05/26 01:23:34;;;;;;;4.30;1.60;;;;;;;9.33;80.44;100373.72;2067790;28;20084;-62
2021/05/26 01:24:35;;;;;;;3.42;1.50;;;;;;;9.33;81.53;100374.56;2068976;28;20269;-61
2021/05/26 01:25:35;;;;;;;3.80;1.50;;;;;;;9.33;80.77;100377.19;2072169;28;20072;-61
2021/05/26 01:26:35;;;;;;;5.23;1.70;;;;;;;9.32;81.10;100365.06;2071460;28;20113;-61
2021/05/26 01:27:36;;;;;;;3.93;1.30;;;;;;;9.28;81.23;100373.81;2071399;28;20486;-61
2021/05/26 01:28:37;;;;;;;4.37;1.30;;;;;;;9.26;81.29;100378.19;2069727;28;20080;-61
2021/05/26 01:29:37;;;;;;;5.57;1.50;;;;;;;9.24;81.63;100373.91;2069458;28;20061;-61
2021/05/26 01:30:37;;;;;;;2.63;1.40;;;;;;;9.24;81.95;100374.78;2071432;28;20034;-61
2021/05/26 01:31:38;;;;;;;5.10;1.47;;;;;;;9.21;82.52;100374.00;2068690;28;20076;-61
2021/05/26 01:32:47;;;;;;;3.73;1.60;;;;;;;9.20;82.56;100373.13;2070853;28;20056;-61
2021/05/26 01:33:47;;;;;;;6.95;1.40;;;;;;;9.19;83.05;100372.28;2068986;28;20033;-61
2021/05/26 01:34:47;;;;;;;13.67;1.83;;;;;;;9.19;83.32;100367.09;2068907;28;20029;-61
2021/05/26 01:35:48;;;;;;;2.63;1.23;;;;;;;9.20;83.88;100367.94;2069466;28;20022;-61
2021/05/26 01:36:49;;;;;;;4.72;1.52;;;;;;;9.20;83.80;100367.94;2070403;28;20475;-61
2021/05/26 01:37:50;;;;;;;6.15;1.25;;;;;;;9.18;83.50;100373.16;2071456;28;20085;-61
2021/05/26 01:38:50;;;;;;;5.87;1.40;;;;;;;9.19;83.89;100371.41;2068554;28;20033;-61
2021/05/26 01:39:50;;;;;;;2.93;1.30;;;;;;;9.21;83.08;100372.25;2068569;28;20034;-61
2021/05/26 01:40:56;;;;;;;2.80;1.40;;;;;;;9.22;82.38;100368.75;2067810;28;20022;-61
2021/05/26 01:41:57;;;;;;;2.85;1.40;;;;;;;9.25;81.76;100373.03;2068805;28;20118;-61
2021/05/26 01:42:57;;;;;;;3.87;1.30;;;;;;;9.21;81.43;100364.44;2071652;28;20502;-61
2021/05/26 01:43:57;;;;;;;4.57;1.40;;;;;;;9.21;82.78;100359.25;2067169;28;20136;-61
2021/05/26 01:44:58;;;;;;;4.63;1.50;;;;;;;9.17;nan;100368.84;2068894;28;20444;-61
2021/05/26 01:46:00;;;;;;;4.78;1.50;;;;;;;9.15;83.38;100367.19;2068597;28;20292;-61
2021/05/26 01:47:00;;;;;;;4.13;1.63;;;;;;;9.16;83.21;100361.94;2070075;28;20034;-61
2021/05/26 01:48:01;;;;;;;4.22;1.48;;;;;;;9.13;82.43;100353.34;2072152;28;20060;-61
2021/05/26 01:49:03;;;;;;;3.40;1.67;;;;;;;9.13;81.69;100350.75;2071983;28;20057;-62
2021/05/26 01:50:06;;;;;;;5.68;1.85;;;;;;;9.15;80.57;100356.78;2073585;28;20093;-61
2021/05/26 01:51:06;;;;;;;3.20;1.20;;;;;;;9.16;80.68;100350.69;2075289;28;20059;-61
2021/05/26 01:52:07;;;;;;;7.57;1.60;;;;;;;9.21;79.94;100348.84;2072297;28;20018;-61
2021/05/26 01:53:08;;;;;;;2.10;1.20;;;;;;;9.25;79.77;100350.50;2071295;28;20025;-62
2021/05/26 01:54:08;;;;;;;4.50;1.65;;;;;;;9.25;80.14;100349.63;2075295;28;20026;-61
2021/05/26 01:55:09;;;;;;;4.53;1.70;;;;;;;9.25;80.85;100349.63;2074454;28;20814;-62
2021/05/26 01:56:21;;;;;;;3.97;1.30;;;;;;;9.26;81.23;100351.34;2080685;28;20284;-61
2021/05/26 01:57:21;;;;;;;;;;;;;;;9.27;80.01;100342.66;2067104;28;20375;-62
2021/05/26 01:58:21;;;;;;;4.80;1.40;;;;;;;9.27;79.57;100343.50;2064325;28;19968;-61
2021/05/26 01:59:25;;;;;;;8.87;1.57;;;;;;;9.30;79.28;100351.22;2079246;28;20021;-62
2021/05/26 02:00:25;;;;;;;3.47;1.27;;;;;;;9.39;77.37;100350.19;2078956;28;20034;-61
2021/05/26 02:01:26;;;;;;;3.72;1.48;;;;;;;9.43;77.06;100349.19;2072202;28;20050;-62
2021/05/26 02:02:27;;;;;;;3.10;1.30;;;;;;;9.44;76.70;100348.31;2071429;28;20041;-61
2021/05/26 02:03:27;;;;;;;4.27;1.30;;;;;;;9.42;76.92;100354.44;2067266;28;20088;-62
2021/05/26 02:04:27;;;;;;;3.37;1.40;;;;;;;9.45;75.74;100357.00;2071417;28;20034;-60
2021/05/26 02:05:28;;;;;;;4.63;1.50;;;;;;;9.46;75.56;100361.28;2071671;28;20064;-61
2021/05/26 02:06:28;;;;;;;4.43;1.33;;;;;;;9.45;76.21;100359.59;2063933;28;20026;-60
2021/05/26 02:07:29;;;;;;;6.77;1.60;;;;;;;9.46;75.92;100353.47;2063430;28;20030;-61
2021/05/26 02:08:29;;;;;;;2.27;1.27;;;;;;;9.46;75.72;100348.25;2063913;28;20459;-61
2021/05/26 02:09:30;;;;;;;6.50;1.83;;;;;;;9.42;75.92;100350.09;2063372;28;20033;-61
2021/05/26 02:13:08;;;;;;;3.42;1.55;;;;;;;9.35;77.76;100344.16;2072198;28;20030;-61
2021/05/26 02:14:09;;;;;;;3.83;1.40;;;;;;;9.34;76.33;100347.69;2072265;28;20030;-61
2021/05/26 02:15:12;;;;;;;5.80;1.52;;;;;;;9.33;77.31;100343.38;2072343;28;20072;-61
2021/05/26 02:16:13;;;;;;;6.20;1.55;;;;;;;9.38;77.23;100350.19;2078011;28;20037;-61
2021/05/26 02:17:13;;;;;;;2.80;1.33;;;;;;;9.32;77.12;100341.66;2076961;28;20021;-61
2021/05/26 02:18:13;;;;;;;3.23;1.47;;;;;;;9.26;78.73;100339.16;2066912;28;20054;-61
2021/05/26 02:19:14;;;;;;;5.00;1.70;;;;;;;9.23;78.70;100336.66;2078409;28;20068;-60
2021/05/26 02:20:14;;;;;;;5.70;1.63;;;;;;;9.25;78.55;100337.50;2069936;28;20574;-60
2021/05/26 02:21:14;;;;;;;4.13;1.40;;;;;;;9.14;78.64;100331.66;2067073;28;20034;-60
2021/05/26 02:22:15;;;;;;;4.33;1.57;;;;;;;9.10;78.83;100319.63;2063662;28;20414;-61
2021/05/26 02:23:15;;;;;;;4.63;1.65;;;;;;;9.13;78.96;100319.56;2078838;28;20036;-61
2021/05/26 02:24:16;;;;;;;3.67;1.53;;;;;;;9.14;80.07;100327.31;2079946;28;20209;-60
2021/05/26 02:25:16;;;;;;;3.53;1.50;;;;;;;9.11;79.34;100323.94;2076823;28;20029;-61
2021/05/26 02:26:17;;;;;;;5.87;1.70;;;;;;;9.10;80.66;100322.22;2080050;28;20778;-61
2021/05/26 02:27:17;;;;;;;2.73;1.30;;;;;;;9.06;79.55;100328.38;2080208;28;20060;-61
2021/05/26 02:28:17;;;;;;;3.83;1.37;;;;;;;9.10;78.99;100314.41;2068137;28;20118;-60
2021/05/26 02:29:18;;;;;;;5.00;1.60;;;;;;;9.07;79.83;100320.53;2064245;28;20022;-60
2021/05/26 02:30:18;;;;;;;4.20;1.67;;;;;;;9.09;79.86;100320.50;2068863;28;20406;-60
2021/05/26 02:31:18;;;;;;;3.43;1.50;;;;;;;9.10;79.62;100325.69;2071985;28;20088;-60
2021/05/26 02:32:20;;;;;;;4.47;1.20;;;;;;;9.08;79.85;100321.38;2071741;28;20418;-61
2021/05/26 02:33:21;;;;;;;2.90;1.40;;;;;;;9.06;81.17;100320.59;2073258;28;20033;-61
2021/05/26 02:34:21;;;;;;;5.77;2.00;;;;;;;9.08;81.38;100318.78;2079797;28;20037;-61
2021/05/26 02:35:21;;;;;;;4.13;1.30;;;;;;;9.05;80.76;100321.47;2078662;28;20394;-60
2021/05/26 02:36:22;;;;;;;5.37;1.50;;;;;;;9.07;80.60;100315.34;2071934;28;20036;-61
2021/05/26 02:37:22;;;;;;;4.87;1.60;;;;;;;9.05;80.66;100309.31;2064457;28;20034;-61
2021/05/26 02:38:23;;;;;;;3.95;1.90;;;;;;;9.06;80.82;100307.59;2063612;28;20023;-61
2021/05/26 02:39:24;;;;;;;4.83;1.60;;;;;;;9.02;80.67;100305.03;2064171;28;20427;-61
2021/05/26 02:40:24;;;;;;;4.22;1.55;;;;;;;9.02;81.12;100305.03;2072764;28;20036;-61
2021/05/26 02:41:24;;;;;;;4.03;1.50;;;;;;;9.00;80.78;100301.63;2071844;28;20069;-61
2021/05/26 02:42:25;;;;;;;5.30;1.70;;;;;;;9.03;80.46;100291.16;2071357;28;20108;-60
2021/05/26 02:43:25;;;;;;;5.33;1.73;;;;;;;8.97;80.76;100286.06;2071170;28;20041;-61
2021/05/26 02:44:25;;;;;;;3.90;1.43;;;;;;;8.93;79.86;100287.06;2071107;28;20360;-60
2021/05/26 02:45:26;;;;;;;6.23;1.70;;;;;;;8.95;80.10;100293.09;2072071;28;20029;-61
2021/05/26 02:46:27;;;;;;;3.70;1.40;;;;;;;8.88;80.78;100294.09;2071923;28;20550;-61
2021/05/26 02:47:27;;;;;;;5.72;1.50;;;;;;;8.91;80.73;100286.22;2071888;28;20552;-61
2021/05/26 02:48:27;;;;;;;5.07;1.43;;;;;;;8.87;80.52;100290.63;2071413;28;20026;-61
2021/05/26 02:49:28;;;;;;;5.33;1.90;;;;;;;8.86;80.81;100291.53;2073798;28;20069;-61
2021/05/26 02:50:28;;;;;;;5.90;1.70;;;;;;;8.86;81.36;100283.72;2065186;28;20467;-61
2021/05/26 02:51:28;;;;;;;4.03;1.47;;;;;;;8.84;81.52;100288.09;2069411;28;20029;-61
2021/05/26 02:52:29;;;;;;;5.17;1.60;;;;;;;8.81;81.28;100282.13;2079892;28;20068;-61
2021/05/26 02:53:29;;;;;;;9.10;1.80;;;;;;;8.80;82.62;100280.41;2079131;28;20052;-61
2021/05/26 02:54:29;;;;;;;3.77;1.10;;;;;;;8.82;81.72;100276.88;2079261;28;20100;-61
2021/05/26 02:55:29;;;;;;;4.43;1.57;;;;;;;8.80;81.62;100273.47;2079869;28;20029;-60
2021/05/26 02:56:30;;;;;;;4.93;1.70;;;;;;;8.86;81.55;100280.28;2080117;28;20025;-61
2021/05/26 02:57:30;;;;;;;6.93;1.77;;;;;;;8.81;81.38;100275.19;2079854;28;20033;-61
2021/05/26 02:58:30;;;;;;;4.83;1.90;;;;;;;8.84;81.12;100272.50;2079945;28;20371;-61
2021/05/26 02:59:31;;;;;;;3.80;1.40;;;;;;;8.83;81.59;100278.59;2067143;28;20343;-61
2021/05/26 03:00:31;;;;;;;7.60;1.70;;;;;;;8.82;81.42;100273.44;2063736;28;20064;-61
2021/05/26 03:01:32;;;;;;;4.63;1.47;;;;;;;8.86;81.56;100275.09;2063239;28;20081;-60
2021/05/26 03:02:32;;;;;;;4.28;1.38;;;;;;;8.83;81.56;100280.34;2063732;28;20026;-61
2021/05/26 03:03:33;;;;;;;3.60;1.33;;;;;;;8.97;80.85;100280.88;2063508;28;20057;-61
2021/05/26 03:04:33;;;;;;;5.13;2.00;;;;;;;8.93;81.86;100284.44;2063421;28;20506;-61
2021/05/26 03:05:33;;;;;;;4.77;1.87;;;;;;;8.97;81.41;100286.06;2064832;28;20292;-61
2021/05/26 03:06:34;;;;;;;5.20;1.73;;;;;;;9.06;80.43;100279.00;2072589;28;20025;-61
2021/05/26 03:07:34;;;;;;;3.87;1.40;;;;;;;9.05;80.27;100275.50;2072703;28;20486;-61
2021/05/26 03:08:34;;;;;;;5.47;1.60;;;;;;;9.08;80.44;100275.47;2078689;28;20052;-60
2021/05/26 03:09:34;;;;;;;4.53;1.37;;;;;;;9.09;80.68;100271.09;2073875;28;20498;-60
2021/05/26 03:10:35;;;;;;;4.30;1.60;;;;;;;9.10;80.23;100267.59;2071005;28;20778;-61
2021/05/26 03:11:35;;;;;;;10.27;1.63;;;;;;;9.16;80.06;100277.88;2071158;28;20044;-61
2021/05/26 03:12:36;;;;;;;3.53;1.30;;;;;;;9.21;80.50;100270.81;2071534;28;20444;-61
2021/05/26 03:13:36;;;;;;;4.35;1.80;;;;;;;9.10;80.33;100275.41;2071617;28;20032;-61
2021/05/26 03:14:37;;;;;;;6.30;1.73;;;;;;;9.19;80.59;100273.47;2070907;28;20062;-61
2021/05/26 03:15:37;;;;;;;5.37;1.47;;;;;;;9.17;80.45;100276.97;2071202;28;20121;-61
2021/05/26 03:16:38;;;;;;;7.10;1.67;;;;;;;9.13;80.58;100277.94;2073918;28;20372;-60
2021/05/26 03:17:39;;;;;;;4.13;1.63;;;;;;;9.05;81.14;100274.69;2079998;28;20029;-61
2021/05/26 03:18:40;;;;;;;4.38;1.40;;;;;;;9.03;81.80;100277.28;2079877;28;20490;-60
2021/05/26 03:19:41;;;;;;;5.85;1.75;;;;;;;9.02;81.99;100270.38;2077745;28;20782;-60
2021/05/26 03:20:41;;;;;;;5.10;1.40;;;;;;;9.03;82.19;100267.75;2065277;28;20157;-61
2021/05/26 03:21:41;;;;;;;7.27;1.67;;;;;;;9.01;82.33;100272.13;2078038;28;20088;-61
2021/05/26 03:22:42;;;;;;;3.77;1.40;;;;;;;8.98;82.58;100274.78;2079702;28;20112;-61
2021/05/26 03:23:43;;;;;;;7.15;1.85;;;;;;;8.94;83.05;100265.38;2079922;28;20053;-61
2021/05/26 03:24:43;;;;;;;3.67;1.48;;;;;;;8.96;82.99;100268.81;2079705;28;20030;-61
2021/05/26 03:25:47;;;;;;;3.10;1.33;;;;;;;8.92;83.21;100274.94;2080104;28;20029;-61
2021/05/26 03:26:47;;;;;;;4.43;1.50;;;;;;;8.94;83.24;100267.09;2079697;28;20045;-61
2021/05/26 03:27:47;;;;;;;5.93;1.60;;;;;;;8.92;83.27;100272.34;2080064;28;20504;-60
2021/05/26 03:28:48;;;;;;;7.77;1.90;;;;;;;8.93;83.41;100266.25;2079942;28;20045;-61
2021/05/26 03:29:48;;;;;;;9.53;1.80;;;;;;;8.97;83.67;100270.47;2076627;28;20029;-61
2021/05/26 03:30:48;;;;;;;4.13;1.47;;;;;;;8.96;83.79;100265.31;2069356;28;20040;-61
2021/05/26 03:31:49;;;;;;;3.15;1.58;;;;;;;8.94;84.02;100262.78;2071937;28;20825;-61
2021/05/26 03:32:50;;;;;;;3.83;2.07;;;;;;;8.91;84.13;100257.63;2071543;28;20177;-61
2021/05/26 03:33:51;;;;;;;2.58;1.40;;;;;;;8.99;83.71;100266.09;2071617;28;20026;-61
2021/05/26 03:34:51;;;;;;;;;;;;;;;8.97;83.99;100260.09;2071808;28;20116;-61
2021/05/26 03:35:51;;;;;;;3.78;1.55;;;;;;;8.99;84.17;100260.91;2071770;28;19960;-61
2021/05/26 03:36:52;;;;;;;6.90;1.77;;;;;;;8.97;84.26;100262.69;2070898;28;20032;-61
2021/05/26 03:37:53;;;;;;;3.23;1.40;;;;;;;8.99;84.63;100263.50;2063596;28;20109;-61
2021/05/26 03:38:53;;;;;;;3.70;1.48;;;;;;;8.99;84.38;100262.66;2063518;28;20030;-61
2021/05/26 03:39:54;;;;;;;5.93;1.90;;;;;;;8.99;84.51;100260.91;2068970;28;20487;-61
2021/05/26 03:40:54;;;;;;;4.33;1.90;;;;;;;9.06;nan;100259.03;2071547;28;20018;-61
2021/05/26 03:41:54;;;;;;;3.90;1.40;;;;;;;9.01;84.58;100256.53;2071039;28;20287;-61
2021/05/26 03:42:55;;;;;;;4.23;1.70;;;;;;;9.02;84.84;100260.84;2071189;28;20025;-61
2021/05/26 03:43:55;;;;;;;6.70;1.65;;;;;;;9.06;85.21;100268.59;2071015;28;20022;-61
2021/05/26 03:44:55;;;;;;;4.47;1.43;;;;;;;9.07;85.31;100265.06;2070816;28;20038;-61
2021/05/26 03:45:56;;;;;;;3.73;1.40;;;;;;;9.07;85.20;100258.16;2063723;28;20043;-61
2021/05/26 03:46:56;;;;;;;3.03;1.43;;;;;;;9.08;85.33;100261.59;2064575;28;20033;-61
2021/05/26 03:47:57;;;;;;;4.27;1.63;;;;;;;9.08;85.71;100267.66;2071818;28;20042;-61
2021/05/26 03:48:57;;;;;;;3.40;1.60;;;;;;;9.09;85.93;100266.78;2071463;28;20033;-61
2021/05/26 03:49:57;;;;;;;3.30;1.37;;;;;;;9.12;85.34;100263.22;2071733;28;20042;-62
2021/05/26 03:50:58;;;;;;;5.40;1.63;;;;;;;9.16;85.44;100273.53;2072778;28;20108;-62
2021/05/26 03:51:58;;;;;;;5.90;1.67;;;;;;;9.13;85.53;100264.94;2071283;28;20490;-61
2021/05/26 03:52:58;;;;;;;3.07;1.20;;;;;;;9.12;85.85;100276.25;2071466;28;20080;-61
2021/05/26 03:53:59;;;;;;;4.13;1.33;;;;;;;9.11;85.74;100272.75;2071812;28;20038;-61
2021/05/26 03:54:59;;;;;;;4.95;1.50;;;;;;;9.10;85.57;100263.28;2071874;28;20026;-61
2021/05/26 03:56:00;;;;;;;3.17;1.40;;;;;;;9.09;85.70;100265.91;2071944;28;20033;-61
2021/05/26 03:57:05;;;;;;;4.23;1.67;;;;;;;9.13;85.47;100272.75;2074260;28;20030;-62
2021/05/26 03:58:05;;;;;;;6.63;1.52;;;;;;;9.14;85.56;100264.91;2071715;28;20553;-61
2021/05/26 03:59:06;;;;;;;5.07;1.87;;;;;;;9.17;86.05;100267.44;2071798;28;20049;-61
2021/05/26 04:00:09;;;;;;;1.77;1.30;;;;;;;9.17;86.06;100274.38;2070987;28;20757;-61
2021/05/26 04:01:09;;;;;;;3.55;1.30;;;;;;;9.19;86.28;100268.25;2064917;28;20030;-61
2021/05/26 04:02:09;;;;;;;4.43;1.53;;;;;;;9.22;86.25;100272.53;2063320;28;20026;-60
2021/05/26 04:03:10;;;;;;;5.70;1.63;;;;;;;9.14;86.35;100269.25;2062820;28;20026;-61
2021/05/26 04:04:10;;;;;;;3.33;1.43;;;;;;;9.20;86.33;100269.09;2062353;28;20026;-61
2021/05/26 04:05:11;;;;;;;4.97;1.50;;;;;;;9.19;86.59;100270.00;2062620;28;20053;-60
2021/05/26 04:06:11;;;;;;;3.45;1.40;;;;;;;9.20;86.32;100276.91;2064628;28;20033;-60
2021/05/26 04:07:11;;;;;;;7.07;1.90;;;;;;;9.19;86.48;100272.59;2065233;28;20034;-60
2021/05/26 04:08:12;;;;;;;5.57;1.80;;;;;;;9.15;86.49;100270.97;2065130;28;20038;-61
2021/05/26 04:09:12;;;;;;;5.30;1.50;;;;;;;9.14;86.73;100270.09;2064833;28;20407;-60
2021/05/26 04:10:13;;;;;;;6.83;1.80;;;;;;;9.21;87.00;100276.03;2067722;28;20026;-61
2021/05/26 04:11:13;;;;;;;6.87;1.63;;;;;;;9.20;87.46;100266.50;2072694;28;20022;-60
2021/05/26 04:12:13;;;;;;;5.23;1.90;;;;;;;9.20;87.76;100263.91;2072521;28;20600;-61
2021/05/26 04:13:14;;;;;;;6.73;1.70;;;;;;;9.26;87.48;100260.31;2073070;28;20029;-60
2021/05/26 04:14:15;;;;;;;7.03;1.70;;;;;;;9.37;86.95;100260.91;2072989;28;20021;-60
2021/05/26 04:15:15;;;;;;;4.63;1.40;;;;;;;9.39;87.31;100264.34;2073668;28;20029;-60
2021/05/26 04:16:16;;;;;;;3.73;1.77;;;;;;;9.42;86.63;100256.44;2080769;28;20040;-60
2021/05/26 04:17:16;;;;;;;4.03;1.58;;;;;;;9.48;86.74;100258.03;2075388;28;20106;-60
2021/05/26 04:18:16;;;;;;;6.07;1.73;;;;;;;9.57;86.69;100260.41;2079535;28;20116;-60
2021/05/26 04:19:17;;;;;;;4.73;1.60;;;;;;;9.61;86.31;100259.44;2081136;28;20838;-60
2021/05/26 04:20:17;;;;;;;4.10;1.60;;;;;;;9.60;86.47;100247.31;2068183;28;20065;-60
2021/05/26 04:21:17;;;;;;;5.57;1.53;;;;;;;9.60;86.09;100249.94;2078612;28;20280;-61
2021/05/26 04:22:18;;;;;;;5.77;1.67;;;;;;;9.66;86.52;100248.91;2081145;28;20489;-60
2021/05/26 04:23:18;;;;;;;6.83;1.53;;;;;;;9.66;85.86;100246.31;2080817;28;20028;-60
2021/05/26 04:24:18;;;;;;;6.93;1.60;;;;;;;9.63;85.86;100236.84;2073357;28;20037;-60
2021/05/26 04:25:19;;;;;;;3.27;1.67;;;;;;;9.66;85.60;100241.94;2072809;28;20760;-60
2021/05/26 04:26:19;;;;;;;5.97;1.80;;;;;;;9.70;85.26;100237.53;2073035;28;20038;-60
2021/05/26 04:27:19;;;;;;;4.60;1.53;;;;;;;9.67;85.50;100235.03;2074283;28;20394;-60
2021/05/26 04:28:21;;;;;;;5.53;1.80;;;;;;;9.65;85.75;100237.63;2081337;28;20084;-60
2021/05/26 04:29:22;;;;;;;6.63;1.48;;;;;;;9.67;85.82;100237.63;2081170;28;20025;-61
2021/05/26 04:30:23;;;;;;;6.63;1.60;;;;;;;9.68;86.14;100238.47;2069642;28;20041;-60
2021/05/26 04:31:23;;;;;;;5.60;1.40;;;;;;;9.72;86.40;100237.50;2072858;28;20021;-60
2021/05/26 04:32:24;;;;;;;3.53;1.47;;;;;;;9.64;86.58;100240.28;2072052;28;20033;-60
2021/05/26 04:33:24;;;;;;;6.10;1.83;;;;;;;9.72;86.18;100242.69;2071121;28;20539;-60
2021/05/26 04:34:25;;;;;;;3.83;1.83;;;;;;;9.71;86.18;100238.38;2070732;28;20076;-60
2021/05/26 04:35:25;;;;;;;3.57;1.50;;;;;;;9.68;86.44;100244.53;2071901;28;20042;-61
2021/05/26 04:36:25;;;;;;;6.03;1.40;;;;;;;9.66;86.50;100247.16;2065844;28;20019;-60
2021/05/26 04:37:26;;;;;;;5.63;1.40;;;;;;;9.65;86.48;100242.84;2072190;28;20040;-61
2021/05/26 04:38:26;;;;;;;4.80;1.77;;;;;;;9.63;86.77;100241.19;2075377;28;20029;-60
2021/05/26 04:39:26;;;;;;;4.83;1.50;;;;;;;9.65;86.94;100244.59;2071767;28;20487;-61
2021/05/26 04:40:26;;;;;;;6.27;1.70;;;;;;;9.69;86.95;100242.78;2072353;28;20129;-60
2021/05/26 04:41:27;;;;;;;5.73;1.77;;;;;;;9.72;86.75;100237.50;2079444;28;20056;-60
2021/05/26 04:42:27;;;;;;;3.20;1.63;;;;;;;9.77;86.98;100233.88;2076599;28;20033;-60
2021/05/26 04:43:28;;;;;;;5.73;1.37;;;;;;;9.87;86.45;100233.63;2080226;28;20088;-61
2021/05/26 04:44:29;;;;;;;4.32;1.42;;;;;;;9.86;86.32;100227.56;2072970;28;20026;-60
2021/05/26 04:45:29;;;;;;;3.33;1.60;;;;;;;9.89;86.44;100224.88;2075068;28;20072;-60
2021/05/26 04:46:30;;;;;;;4.93;1.75;;;;;;;9.83;86.98;100222.47;2081202;28;20072;-60
2021/05/26 04:47:30;;;;;;;3.53;1.53;;;;;;;10.00;86.94;100216.78;2077955;28;20067;-60
2021/05/26 04:48:30;;;;;;;3.23;1.60;;;;;;;10.06;86.09;100224.44;2081014;28;20102;-60
2021/05/26 04:49:31;;;;;;;5.07;1.60;;;;;;;10.02;85.96;100221.94;2064468;28;20088;-61